Flight Number: EUR3078 Duration: 11:00
Departure: Madrid / Barajas (LEMD) at 07:00 Distance: 3442 Nm
Arrival: San Juan / Luis Munoz (TJSJ) at 18:00 Equipment: B777

Weather Information
Madrid / Barajas, Spain (LEMD) 40-27N 003-33W 582M Nov 18, 2017 - 07:00 AM EST / 2017.11.18 1200 UTC
Wind: from the S (180 degrees) at 3 MPH (3 KT) gusting to 15 MPH (13 KT):0
Visibility: greater than 7 mile(s):0 Temperature: 64 F (18 C) Dew Point: 37 F (3 C) Relative Humidity: 36% Pressure (altimeter): 30.12 in. Hg (1020 hPa)
ob: LEMD 181200Z 18003G13KT CAVOK 18/03 Q1020 NOSIG cycle: 12
Sunrise: 07:08 Sunset: 16:50 (UTC)

San Juan, Luis Munoz Marin International Airport, PR, United States (TJSJ) 18-27N 066-00W Nov 18, 2017 - 06:56 AM EST / 2017.11.18 1156 UTC
Wind: Calm:0
Visibility: 10 mile(s):0
Sky conditions: mostly cloudy Precipitation last hour: A trace Temperature: 80.1 F (26.7 C) Dew Point: 77.0 F (25.0 C) Relative Humidity: 90% Pressure (altimeter): 29.79 in. Hg (1008 hPa) Pressure tendency: 0.05 inches (1.6 hPa) higher than three hours ago
ob: TJSJ 181156Z 00000KT 10SM FEW018 BKN060 BKN100 27/25 A2979 RMK AO2 RAB12E55 SLP088 P0000 60000 T02670250 10272 20267 53016 cycle: 12
Sunrise: 10:35 Sunset: 21:43 (UTC)

TAF:2017/11/18 12:57 TAF TJSJ 181143Z 1812/1912 00000KT P6SM -SHRA SCT020 SCT060 SCT080 FM181600 29009KT P6SM -SHRA VCTS SCT020CB SCT030 BKN070 TEMPO 1817/1819 VRB10G20KT 3SM TSRA BKN030CB BKN040 FM182230 VRB04KT P6SM VCSH SCT030 BKN120

This route has never been flown.

Route map